Highspire, Pennsylvania
Current Conditions -  °F | °C
As of 6:56 AM on Sunday 23 Nov 2014 (Local Time) from KMDT Reporting Station
Scattered Clouds Scattered Clouds  
Wind Chill: 31°   Ceiling: Unl
Heat Index: 31°   Visibility: 8mi
Dew Point: 23°   Wind: 3mph
Humidity: 72%   Direction: 100°E
Pressure: 30.2"   Gusts: NA
Location:  40.21°N, 76.79°W
Report Text: KMDT 231156Z 10003KT 8SM FEW040 SCT100 SCT150 M01/M05 A3020 RMK AO2 SLP232 T10061050 10039 21011 51012
Loading
Personal Weather Stations






























Interactive Weather Map New forecast layout! Learn more

10-Day Weather Forecast

Advertisements
Track Severe Weather on mobile